Terminal Aerodrome Forecast
Issued by NWS Pocatello, ID

Home | Current Version | Previous Version | Text Only | Print | Product List | Glossary On
Versions: 1 2 3 4 5 6 7 8 9 10 11 12 13 14 15 16 17 18 19 20 21 22
000
FTUS45 KPIH 201728
TAFBYI
TAF
KBYI 201728Z 2018/2118 22015KT P6SM SCT040 OVC080
     FM201900 23015G25KT P6SM VCSH SCT040 OVC060
     FM210100 20009KT P6SM -RA FEW010 BKN020 OVC040
     FM211600 27010KT P6SM VCSH SCT020 BKN035 OVC070=

USA.gov is the U.S. government's official web portal to all federal, state and local government web resources and services.